createdAt,value
2024-01-24T00:00:10.323Z,78.80
2024-01-24T00:00:22.498Z,79.20
2024-01-24T00:00:34.656Z,79.27
2024-01-24T00:00:46.761Z,78.74
2024-01-24T00:00:58.895Z,78.92
2024-01-24T00:01:11.048Z,79.24
2024-01-24T00:01:23.089Z,79.24
2024-01-24T00:01:35.329Z,79.52
2024-01-24T00:01:47.346Z,79.70
2024-01-24T00:01:59.384Z,79.93
2024-01-24T00:02:11.384Z,79.42
2024-01-24T00:02:23.385Z,78.99
2024-01-24T00:02:35.345Z,78.96
2024-01-24T00:02:50.423Z,79.37
2024-01-24T00:03:02.846Z,78.83
2024-01-24T00:03:15.033Z,79.10
2024-01-24T00:03:27.249Z,79.00
2024-01-24T00:03:39.306Z,79.62
2024-01-24T00:03:51.362Z,79.82
2024-01-24T00:04:03.602Z,79.85
2024-01-24T00:04:15.768Z,79.70
2024-01-24T00:04:27.954Z,79.34
2024-01-24T00:04:40.094Z,79.04
2024-01-24T00:04:52.135Z,79.29
2024-01-24T00:05:04.287Z,79.12
2024-01-24T00:05:17.222Z,79.26
2024-01-24T00:05:29.505Z,79.31
2024-01-24T00:05:41.559Z,79.05
2024-01-24T00:05:53.556Z,78.98
2024-01-24T00:06:05.814Z,78.62
2024-01-24T00:06:17.813Z,78.41
2024-01-24T00:06:29.874Z,78.64
2024-01-24T00:06:41.916Z,78.69
2024-01-24T00:06:53.943Z,78.92
2024-01-24T00:07:06.116Z,79.19
2024-01-24T00:07:18.103Z,79.08
2024-01-24T00:07:30.251Z,79.34
2024-01-24T00:07:42.271Z,78.93
2024-01-24T00:07:54.408Z,78.83
2024-01-24T00:08:06.550Z,78.67
2024-01-24T00:08:18.514Z,78.62
2024-01-24T00:08:30.479Z,78.36
2024-01-24T00:08:42.484Z,78.39
2024-01-24T00:08:54.448Z,78.85
2024-01-24T00:09:06.441Z,78.91
2024-01-24T00:09:18.439Z,78.82
2024-01-24T00:09:32.435Z,78.62
2024-01-24T00:09:44.437Z,78.64
2024-01-24T00:09:56.407Z,78.74
2024-01-24T00:10:09.091Z,79.00
2024-01-24T00:10:21.222Z,78.79
2024-01-24T00:10:33.161Z,79.24
2024-01-24T00:10:45.338Z,78.89
2024-01-24T00:10:57.434Z,78.66
2024-01-24T00:11:09.412Z,78.32
2024-01-24T00:11:21.901Z,78.51
2024-01-24T00:11:33.896Z,78.37
2024-01-24T00:11:45.948Z,78.79
2024-01-24T00:11:59.029Z,78.67
2024-01-24T00:12:11.096Z,78.41
2024-01-24T00:12:23.289Z,78.86
2024-01-24T00:12:35.530Z,79.05
2024-01-24T00:12:47.566Z,78.81
2024-01-24T00:13:00.274Z,78.63
2024-01-24T00:13:12.341Z,78.81
2024-01-24T00:13:24.347Z,78.49
2024-01-24T00:13:36.318Z,78.59
2024-01-24T00:13:48.340Z,78.95
2024-01-24T00:14:00.273Z,78.70
2024-01-24T00:14:12.423Z,78.63
2024-01-24T00:14:24.438Z,78.77
2024-01-24T00:14:36.394Z,78.84
2024-01-24T00:14:48.634Z,78.75
2024-01-24T00:15:00.799Z,78.70
2024-01-24T00:15:12.820Z,78.81
2024-01-24T00:15:24.848Z,78.46
2024-01-24T00:15:37.041Z,78.74
2024-01-24T00:15:49.206Z,78.82
2024-01-24T00:16:01.383Z,79.22
2024-01-24T00:16:13.444Z,79.10
2024-01-24T00:16:37.381Z,79.33
2024-01-24T00:16:49.345Z,79.30
2024-01-24T00:17:02.585Z,79.78
2024-01-24T00:17:14.537Z,79.87
2024-01-24T00:17:26.604Z,79.70
2024-01-24T00:17:38.662Z,79.63
2024-01-24T00:17:50.741Z,79.72
2024-01-24T00:18:02.942Z,79.69
2024-01-24T00:18:15.171Z,79.93
2024-01-24T00:18:27.460Z,79.89
2024-01-24T00:18:39.752Z,79.71
2024-01-24T00:18:51.979Z,79.62
2024-01-24T00:19:04.174Z,79.29
2024-01-24T00:19:16.272Z,78.84
2024-01-24T00:19:28.342Z,79.24
2024-01-24T00:19:40.352Z,79.23
2024-01-24T00:19:52.382Z,79.10
2024-01-24T00:20:04.665Z,79.43
2024-01-24T00:20:16.687Z,79.56
2024-01-24T00:20:28.699Z,79.25
2024-01-24T00:20:40.677Z,79.26
2024-01-24T00:20:54.227Z,79.14
2024-01-24T00:21:06.393Z,79.70
2024-01-24T00:21:18.481Z,79.35
2024-01-24T00:21:30.796Z,79.11
2024-01-24T00:21:42.960Z,79.27
2024-01-24T00:21:55.063Z,79.45
2024-01-24T00:22:07.021Z,79.16
2024-01-24T00:22:18.994Z,79.25
2024-01-24T00:22:30.965Z,79.34
2024-01-24T00:22:42.937Z,79.52
2024-01-24T00:22:54.903Z,79.45
2024-01-24T00:23:06.872Z,79.46
2024-01-24T00:23:19.061Z,79.66
2024-01-24T00:23:31.071Z,79.41
2024-01-24T00:23:43.127Z,79.64
2024-01-24T00:23:55.116Z,79.93
2024-01-24T00:24:07.251Z,79.77
2024-01-24T00:24:19.336Z,79.62
2024-01-24T00:24:31.369Z,79.28
2024-01-24T00:24:43.399Z,79.48
2024-01-24T00:24:55.389Z,79.42
2024-01-24T00:25:07.746Z,79.61
2024-01-24T00:25:19.747Z,80.04
2024-01-24T00:25:31.692Z,79.98
2024-01-24T00:25:43.686Z,79.76
2024-01-24T00:25:55.724Z,79.51
2024-01-24T00:26:07.985Z,79.55
2024-01-24T00:26:20.027Z,79.37
2024-01-24T00:26:31.985Z,79.22
2024-01-24T00:26:43.991Z,79.71
2024-01-24T00:26:56.140Z,79.93
2024-01-24T00:27:08.190Z,79.68
2024-01-24T00:27:20.531Z,79.54
2024-01-24T00:27:32.996Z,79.39
2024-01-24T00:27:45.795Z,78.96
2024-01-24T00:27:58.055Z,79.01
2024-01-24T00:28:10.093Z,78.99
2024-01-24T00:28:23.203Z,78.87
2024-01-24T00:28:35.180Z,78.96
2024-01-24T00:28:47.167Z,78.93
2024-01-24T00:28:59.123Z,79.16
2024-01-24T00:29:11.615Z,79.31
2024-01-24T00:29:23.555Z,79.42
2024-01-24T00:29:35.519Z,79.49
2024-01-24T00:29:47.486Z,79.57
2024-01-24T00:29:59.498Z,79.38
2024-01-24T00:30:11.841Z,79.47
2024-01-24T00:30:24.070Z,79.51
2024-01-24T00:30:36.065Z,79.91
2024-01-24T00:30:48.191Z,79.77
2024-01-24T00:31:00.689Z,79.78
2024-01-24T00:31:12.694Z,80.10
2024-01-24T00:31:24.626Z,79.61
2024-01-24T00:31:36.557Z,79.99
2024-01-24T00:31:51.595Z,79.96
2024-01-24T00:32:04.684Z,79.86
2024-01-24T00:32:16.739Z,80.25
2024-01-24T00:32:28.692Z,80.19
2024-01-24T00:32:40.740Z,80.16
2024-01-24T00:32:52.948Z,80.20
2024-01-24T00:33:05.746Z,80.60
2024-01-24T00:33:18.114Z,80.25
2024-01-24T00:33:32.793Z,80.01
2024-01-24T00:33:44.911Z,80.21
2024-01-24T00:33:57.023Z,80.27
2024-01-24T00:34:09.327Z,80.28
2024-01-24T00:34:21.369Z,80.39
2024-01-24T00:34:33.410Z,80.50
2024-01-24T00:34:45.405Z,80.69
2024-01-24T00:34:57.456Z,80.66
2024-01-24T00:35:09.610Z,80.73
2024-01-24T00:35:21.591Z,80.77
2024-01-24T00:35:33.624Z,80.86
2024-01-24T00:35:45.621Z,81.00
2024-01-24T00:35:57.849Z,81.14
2024-01-24T00:36:09.884Z,80.80
2024-01-24T00:36:23.015Z,80.63
2024-01-24T00:36:35.122Z,80.54
2024-01-24T00:36:47.279Z,80.30
2024-01-24T00:36:59.353Z,80.64
2024-01-24T00:37:11.308Z,80.27
2024-01-24T00:37:24.279Z,80.38
2024-01-24T00:37:36.312Z,80.34
2024-01-24T00:37:48.281Z,80.43
2024-01-24T00:38:00.241Z,80.44
2024-01-24T00:38:12.241Z,80.24
2024-01-24T00:38:24.200Z,80.27
2024-01-24T00:38:36.644Z,80.52
2024-01-24T00:38:48.777Z,80.33
2024-01-24T00:39:00.718Z,80.27
2024-01-24T00:39:14.416Z,80.21
2024-01-24T00:39:26.573Z,79.99
2024-01-24T00:39:38.780Z,80.14
2024-01-24T00:39:50.809Z,80.13
2024-01-24T00:40:04.232Z,80.18
2024-01-24T00:40:16.304Z,80.37
2024-01-24T00:40:28.290Z,80.23
2024-01-24T00:40:40.221Z,79.94
2024-01-24T00:40:52.309Z,79.70
2024-01-24T00:41:04.399Z,79.77
2024-01-24T00:41:16.364Z,80.27
2024-01-24T00:41:28.393Z,80.28
2024-01-24T00:41:42.908Z,80.30
2024-01-24T00:41:57.280Z,80.41
2024-01-24T00:42:09.359Z,80.06
2024-01-24T00:42:21.407Z,79.92
2024-01-24T00:42:33.551Z,79.95
2024-01-24T00:42:45.636Z,79.74
2024-01-24T00:42:57.631Z,79.85
2024-01-24T00:43:09.606Z,79.89
2024-01-24T00:43:22.410Z,79.83
2024-01-24T00:43:34.350Z,79.95
2024-01-24T00:43:46.332Z,80.10
2024-01-24T00:43:58.691Z,80.21
2024-01-24T00:44:10.665Z,80.48
2024-01-24T00:44:22.797Z,80.19
2024-01-24T00:44:34.840Z,80.20
2024-01-24T00:44:48.965Z,79.82
2024-01-24T00:45:00.972Z,79.79
2024-01-24T00:45:13.489Z,79.93
2024-01-24T00:45:25.651Z,79.84
2024-01-24T00:45:37.690Z,79.58
2024-01-24T00:45:49.730Z,79.64
2024-01-24T00:46:01.849Z,79.66
2024-01-24T00:46:13.917Z,79.37
2024-01-24T00:46:25.998Z,79.68
2024-01-24T00:46:37.921Z,79.51
2024-01-24T00:46:49.897Z,79.86
2024-01-24T00:47:01.986Z,79.84
2024-01-24T00:47:13.970Z,79.99
2024-01-24T00:47:26.098Z,79.73
2024-01-24T00:47:38.381Z,79.64
2024-01-24T00:47:50.407Z,79.74
2024-01-24T00:48:02.565Z,79.75
2024-01-24T00:48:14.697Z,79.58
2024-01-24T00:48:26.789Z,80.00
2024-01-24T00:48:38.880Z,80.02
2024-01-24T00:48:51.005Z,79.77
2024-01-24T00:49:11.119Z,80.13
2024-01-24T00:49:23.713Z,79.87
2024-01-24T00:49:35.922Z,80.01
2024-01-24T00:49:47.929Z,80.04
2024-01-24T00:49:59.912Z,80.16
2024-01-24T00:50:11.880Z,79.99
2024-01-24T00:50:23.884Z,79.95
2024-01-24T00:50:36.044Z,80.11
2024-01-24T00:50:47.999Z,80.21
2024-01-24T00:51:00.045Z,79.94
2024-01-24T00:51:12.046Z,79.80
2024-01-24T00:51:24.055Z,79.88
2024-01-24T00:51:36.120Z,80.09
2024-01-24T00:51:49.069Z,80.00
2024-01-24T00:52:01.332Z,80.19
2024-01-24T00:52:14.036Z,80.38
2024-01-24T00:52:26.628Z,80.23
2024-01-24T00:52:38.599Z,79.97
2024-01-24T00:52:53.272Z,80.15
2024-01-24T00:53:05.886Z,79.96
2024-01-24T00:53:21.109Z,80.30
2024-01-24T00:53:35.973Z,80.52
2024-01-24T00:53:53.905Z,80.76
2024-01-24T00:54:06.134Z,80.34
2024-01-24T00:54:18.177Z,80.37
2024-01-24T00:54:30.236Z,80.25
2024-01-24T00:54:42.338Z,79.92
2024-01-24T00:54:54.299Z,80.47
2024-01-24T00:55:07.409Z,80.59
2024-01-24T00:55:20.056Z,80.31
2024-01-24T00:55:32.352Z,80.52
2024-01-24T00:55:46.165Z,80.30
2024-01-24T00:55:59.180Z,80.45
2024-01-24T00:56:11.161Z,80.50
2024-01-24T00:56:23.204Z,80.20
2024-01-24T00:56:35.177Z,80.47
2024-01-24T00:56:47.220Z,79.90
2024-01-24T00:56:59.203Z,80.52
2024-01-24T00:57:11.267Z,80.56
2024-01-24T00:57:23.296Z,80.72
2024-01-24T00:57:35.339Z,80.93
2024-01-24T00:57:47.373Z,80.80
2024-01-24T00:57:59.585Z,80.85
2024-01-24T00:58:11.562Z,80.92
2024-01-24T00:58:23.746Z,80.91
2024-01-24T00:58:35.960Z,80.59
2024-01-24T00:58:47.880Z,80.25
2024-01-24T00:58:59.799Z,80.24
2024-01-24T00:59:11.752Z,80.13
2024-01-24T00:59:23.784Z,80.64
2024-01-24T00:59:35.737Z,80.63
2024-01-24T00:59:47.717Z,80.64
2024-01-24T00:59:59.705Z,80.92
2024-01-24T01:00:12.346Z,80.55
2024-01-24T01:00:24.410Z,80.85
2024-01-24T01:00:36.668Z,80.82
2024-01-24T01:00:48.863Z,80.47
2024-01-24T01:01:01.122Z,80.72
2024-01-24T01:01:13.846Z,80.57
2024-01-24T01:01:25.861Z,80.83
2024-01-24T01:01:38.098Z,80.93
2024-01-24T01:01:50.178Z,80.98
2024-01-24T01:02:02.277Z,80.96
2024-01-24T01:02:14.343Z,81.14
2024-01-24T01:02:26.522Z,81.18
2024-01-24T01:02:38.481Z,80.73
2024-01-24T01:02:50.456Z,80.90
2024-01-24T01:03:02.505Z,80.85
2024-01-24T01:03:14.568Z,80.87
2024-01-24T01:03:26.643Z,80.88
2024-01-24T01:03:39.619Z,80.93
2024-01-24T01:03:51.671Z,80.57
2024-01-24T01:04:04.932Z,80.58
2024-01-24T01:04:17.069Z,80.66
2024-01-24T01:04:29.197Z,80.86
2024-01-24T01:04:41.287Z,80.62
2024-01-24T01:04:53.242Z,80.84
2024-01-24T01:05:05.701Z,80.51
2024-01-24T01:05:17.723Z,80.65
2024-01-24T01:05:29.735Z,80.69
2024-01-24T01:05:41.818Z,80.62
2024-01-24T01:05:53.868Z,80.40
2024-01-24T01:06:06.563Z,80.47
2024-01-24T01:06:18.553Z,80.68
2024-01-24T01:06:30.949Z,80.40
2024-01-24T01:06:43.057Z,80.62
2024-01-24T01:06:55.113Z,80.81
2024-01-24T01:07:07.132Z,80.62
2024-01-24T01:07:19.140Z,80.76
2024-01-24T01:07:31.402Z,80.89
2024-01-24T01:07:43.359Z,80.87
2024-01-24T01:07:56.065Z,81.30
2024-01-24T01:08:08.089Z,81.32
2024-01-24T01:08:20.051Z,81.42
2024-01-24T01:08:32.008Z,81.36
2024-01-24T01:08:43.977Z,81.66
2024-01-24T01:08:56.108Z,81.53
2024-01-24T01:09:09.276Z,81.40
2024-01-24T01:09:21.298Z,81.11
2024-01-24T01:09:33.503Z,81.42
2024-01-24T01:09:45.571Z,81.48
2024-01-24T01:09:57.654Z,80.92
2024-01-24T01:10:10.135Z,80.67
2024-01-24T01:10:22.273Z,81.00
2024-01-24T01:10:34.872Z,80.85
2024-01-24T01:10:46.887Z,80.87
2024-01-24T01:10:58.845Z,80.90
2024-01-24T01:11:10.897Z,81.11
2024-01-24T01:11:22.944Z,81.08
2024-01-24T01:11:34.992Z,80.80
2024-01-24T01:11:46.938Z,80.95
2024-01-24T01:11:59.113Z,80.79
2024-01-24T01:12:11.076Z,80.38
2024-01-24T01:12:23.174Z,80.49
2024-01-24T01:12:35.244Z,80.29
2024-01-24T01:12:47.396Z,80.40
2024-01-24T01:12:59.475Z,80.43
2024-01-24T01:13:11.505Z,80.58
2024-01-24T01:13:24.166Z,80.56
2024-01-24T01:13:36.174Z,80.56
2024-01-24T01:13:49.285Z,80.53
2024-01-24T01:14:01.232Z,80.76
2024-01-24T01:14:13.209Z,80.51
2024-01-24T01:14:25.938Z,80.43
2024-01-24T01:14:38.658Z,79.91
2024-01-24T01:14:50.658Z,79.59
2024-01-24T01:15:02.701Z,79.89
2024-01-24T01:15:14.816Z,80.04
2024-01-24T01:15:26.868Z,79.59
2024-01-24T01:15:38.910Z,79.83
2024-01-24T01:15:51.277Z,79.83
2024-01-24T01:16:04.452Z,80.13
2024-01-24T01:16:16.455Z,80.23
2024-01-24T01:16:28.506Z,80.36
2024-01-24T01:16:40.449Z,80.44
2024-01-24T01:16:52.382Z,80.56
2024-01-24T01:17:04.551Z,80.59
2024-01-24T01:17:16.571Z,80.95
2024-01-24T01:17:28.506Z,80.88
2024-01-24T01:17:40.559Z,81.12
2024-01-24T01:17:52.864Z,80.87
2024-01-24T01:18:05.288Z,81.00
2024-01-24T01:18:17.343Z,80.70
2024-01-24T01:18:29.430Z,80.74
2024-01-24T01:18:41.576Z,80.79
2024-01-24T01:18:53.666Z,80.57
2024-01-24T01:19:05.734Z,80.54
2024-01-24T01:19:17.812Z,80.73
2024-01-24T01:19:29.970Z,81.09
2024-01-24T01:19:42.210Z,80.79
2024-01-24T01:19:54.267Z,80.80
2024-01-24T01:20:06.732Z,80.66
2024-01-24T01:20:21.394Z,80.42
2024-01-24T01:20:33.418Z,80.25
2024-01-24T01:20:45.389Z,80.50
2024-01-24T01:20:57.524Z,80.58
2024-01-24T01:21:09.555Z,80.54
2024-01-24T01:21:21.595Z,80.57
2024-01-24T01:21:33.720Z,80.45
2024-01-24T01:21:46.842Z,80.47
2024-01-24T01:22:00.055Z,80.32
2024-01-24T01:22:12.252Z,80.04
2024-01-24T01:22:24.328Z,80.26
2024-01-24T01:22:36.670Z,80.52
2024-01-24T01:22:49.492Z,80.57
2024-01-24T01:23:01.504Z,80.48
2024-01-24T01:23:13.446Z,80.46
2024-01-24T01:23:25.404Z,80.55
2024-01-24T01:23:37.369Z,80.49
2024-01-24T01:23:49.343Z,80.45
2024-01-24T01:24:01.370Z,80.74
2024-01-24T01:24:13.666Z,80.63
2024-01-24T01:24:25.690Z,80.50
2024-01-24T01:24:37.704Z,80.59
2024-01-24T01:24:49.784Z,80.32
2024-01-24T01:25:02.124Z,80.27
2024-01-24T01:25:14.368Z,80.28
2024-01-24T01:25:26.338Z,80.28
2024-01-24T01:25:38.322Z,80.20
2024-01-24T01:25:50.408Z,79.97
2024-01-24T01:26:02.664Z,80.28
2024-01-24T01:26:14.628Z,79.99
2024-01-24T01:26:26.634Z,79.93
2024-01-24T01:26:38.624Z,79.73
2024-01-24T01:26:50.587Z,79.43
2024-01-24T01:27:03.656Z,79.13
2024-01-24T01:27:15.830Z,78.89
2024-01-24T01:27:27.988Z,79.14
2024-01-24T01:27:40.620Z,79.21
2024-01-24T01:27:52.762Z,79.36
2024-01-24T01:28:05.165Z,79.47
2024-01-24T01:28:17.176Z,79.40
2024-01-24T01:28:29.145Z,79.12
2024-01-24T01:28:41.091Z,78.76
2024-01-24T01:28:53.063Z,79.24
2024-01-24T01:29:05.620Z,78.77
2024-01-24T01:29:17.581Z,78.92
2024-01-24T01:29:29.555Z,79.20
2024-01-24T01:29:41.549Z,79.08
2024-01-24T01:29:53.493Z,78.94
2024-01-24T01:30:06.352Z,79.53
2024-01-24T01:30:18.818Z,79.05
2024-01-24T01:30:30.851Z,78.98
2024-01-24T01:30:42.867Z,78.95
2024-01-24T01:30:55.139Z,78.82
2024-01-24T01:31:10.459Z,78.89
2024-01-24T01:31:22.389Z,79.27
2024-01-24T01:31:34.365Z,79.53
2024-01-24T01:31:47.302Z,79.44
2024-01-24T01:31:59.306Z,79.22
2024-01-24T01:32:11.345Z,79.35
2024-01-24T01:32:23.318Z,79.08
2024-01-24T01:32:35.359Z,79.16
2024-01-24T01:32:47.525Z,79.05
2024-01-24T01:32:59.542Z,79.34
2024-01-24T01:33:11.724Z,78.87
2024-01-24T01:33:23.969Z,78.76
2024-01-24T01:33:36.290Z,78.91
2024-01-24T01:33:48.473Z,78.76
2024-01-24T01:34:02.214Z,78.95
2024-01-24T01:34:14.400Z,78.77
2024-01-24T01:34:26.552Z,78.90
2024-01-24T01:34:38.734Z,78.97
2024-01-24T01:34:50.698Z,79.31
2024-01-24T01:35:02.772Z,79.43
2024-01-24T01:35:14.928Z,79.57
2024-01-24T01:35:27.473Z,79.95
2024-01-24T01:35:39.498Z,79.85
2024-01-24T01:35:51.769Z,79.70
2024-01-24T01:36:14.198Z,79.56
2024-01-24T01:36:34.642Z,79.74
2024-01-24T01:36:46.691Z,79.79
2024-01-24T01:36:58.937Z,79.69
2024-01-24T01:37:10.937Z,79.82
2024-01-24T01:37:24.797Z,79.75
2024-01-24T01:37:39.175Z,79.79
2024-01-24T01:37:51.248Z,80.07
2024-01-24T01:38:03.395Z,80.14
2024-01-24T01:38:15.874Z,79.89
2024-01-24T01:38:27.901Z,79.52
2024-01-24T01:38:39.914Z,79.56
2024-01-24T01:38:51.960Z,79.53
2024-01-24T01:39:05.313Z,79.50
2024-01-24T01:39:17.434Z,79.08
2024-01-24T01:39:29.794Z,78.98
2024-01-24T01:39:41.897Z,78.89
2024-01-24T01:39:53.963Z,78.35
2024-01-24T01:40:07.673Z,78.32
2024-01-24T01:40:19.725Z,77.97
2024-01-24T01:40:31.720Z,78.05
2024-01-24T01:40:43.712Z,78.30
2024-01-24T01:40:55.706Z,78.24
2024-01-24T01:41:07.631Z,78.45
2024-01-24T01:41:19.901Z,78.29
2024-01-24T01:41:31.974Z,78.44
2024-01-24T01:41:47.566Z,78.42
2024-01-24T01:41:59.631Z,78.29
2024-01-24T01:42:11.650Z,78.24
2024-01-24T01:42:23.668Z,78.29
2024-01-24T01:42:35.861Z,78.58
2024-01-24T01:42:48.092Z,78.66
2024-01-24T01:43:00.141Z,78.25
2024-01-24T01:43:15.217Z,78.36
2024-01-24T01:43:27.354Z,78.02
2024-01-24T01:43:39.313Z,77.96
2024-01-24T01:43:51.293Z,77.85
2024-01-24T01:44:03.775Z,78.35
2024-01-24T01:44:16.502Z,78.20
2024-01-24T01:44:28.460Z,78.43
2024-01-24T01:44:47.647Z,78.01
2024-01-24T01:44:59.773Z,77.96
2024-01-24T01:45:12.488Z,78.11
2024-01-24T01:45:24.526Z,78.00
2024-01-24T01:45:36.555Z,78.09
2024-01-24T01:45:49.074Z,78.17
2024-01-24T01:46:11.522Z,78.29
2024-01-24T01:46:23.680Z,78.07
2024-01-24T01:46:35.735Z,78.40
2024-01-24T01:46:48.799Z,78.26
2024-01-24T01:47:00.822Z,78.25
2024-01-24T01:47:17.402Z,78.55
2024-01-24T01:47:29.442Z,78.56
2024-01-24T01:47:41.788Z,78.99
2024-01-24T01:47:54.111Z,78.86
2024-01-24T01:48:06.548Z,78.55
2024-01-24T01:48:18.742Z,78.17
2024-01-24T01:48:30.889Z,78.07
2024-01-24T01:48:43.538Z,77.63
2024-01-24T01:48:57.580Z,77.88
2024-01-24T01:49:10.476Z,77.77
2024-01-24T01:49:22.980Z,78.07
2024-01-24T01:49:35.139Z,78.26
2024-01-24T01:49:47.755Z,78.40
2024-01-24T01:49:59.990Z,78.59
2024-01-24T01:50:15.351Z,78.50
2024-01-24T01:50:27.455Z,78.66
2024-01-24T01:50:40.465Z,78.39
2024-01-24T01:50:52.857Z,78.15
2024-01-24T01:51:06.925Z,78.42
2024-01-24T01:51:20.609Z,78.14
2024-01-24T01:51:32.715Z,78.66
2024-01-24T01:51:45.817Z,78.68
2024-01-24T01:51:58.035Z,78.74
2024-01-24T01:52:10.936Z,78.70
2024-01-24T01:52:25.668Z,78.71
2024-01-24T01:52:41.740Z,78.61
2024-01-24T01:52:53.764Z,78.42
2024-01-24T01:53:08.209Z,78.07
2024-01-24T01:53:21.105Z,77.84
2024-01-24T01:53:39.408Z,77.60
2024-01-24T01:53:51.812Z,77.67
2024-01-24T01:54:04.831Z,77.79
2024-01-24T01:54:17.447Z,77.65
2024-01-24T01:54:29.459Z,77.91
2024-01-24T01:54:43.286Z,77.88
2024-01-24T01:54:55.546Z,78.10
2024-01-24T01:55:09.607Z,78.21
2024-01-24T01:55:22.083Z,78.34
2024-01-24T01:55:36.562Z,78.39
2024-01-24T01:55:49.478Z,78.22
2024-01-24T01:56:01.484Z,78.33
2024-01-24T01:56:16.405Z,78.20
2024-01-24T01:56:28.672Z,78.24
2024-01-24T01:56:40.755Z,78.02
2024-01-24T01:56:52.763Z,78.39
2024-01-24T01:57:06.697Z,78.21
2024-01-24T01:57:18.958Z,77.98
2024-01-24T01:57:32.520Z,78.14
2024-01-24T01:57:45.437Z,78.21
2024-01-24T01:57:59.017Z,77.85
2024-01-24T01:58:10.997Z,78.16
2024-01-24T01:58:23.549Z,78.24
2024-01-24T01:58:36.766Z,78.20
2024-01-24T01:58:50.521Z,78.53
2024-01-24T01:59:02.744Z,78.27
2024-01-24T01:59:15.410Z,78.06
2024-01-24T01:59:27.420Z,77.99
2024-01-24T01:59:41.781Z,77.91
2024-01-24T01:59:54.300Z,78.23
2024-01-24T02:00:09.443Z,77.98
2024-01-24T02:00:22.197Z,78.01
2024-01-24T02:00:34.595Z,78.14
2024-01-24T02:00:51.589Z,77.98
2024-01-24T02:01:05.689Z,77.94
2024-01-24T02:01:18.690Z,77.82
2024-01-24T02:01:30.810Z,77.49
2024-01-24T02:01:46.404Z,77.57
2024-01-24T02:02:01.869Z,77.72
2024-01-24T02:02:15.033Z,78.05
2024-01-24T02:02:27.010Z,78.00
2024-01-24T02:02:39.060Z,77.51
2024-01-24T02:02:51.495Z,77.76
2024-01-24T02:03:03.835Z,77.61
2024-01-24T02:03:15.916Z,77.70
2024-01-24T02:03:28.415Z,77.78
2024-01-24T02:03:40.591Z,77.54
2024-01-24T02:03:53.277Z,77.89
2024-01-24T02:04:05.549Z,77.89
2024-01-24T02:04:18.027Z,78.21
2024-01-24T02:04:30.909Z,78.22
2024-01-24T02:04:42.899Z,78.26
2024-01-24T02:04:54.946Z,78.25
2024-01-24T02:05:07.909Z,78.08
2024-01-24T02:05:20.228Z,77.88
2024-01-24T02:05:33.049Z,77.76
2024-01-24T02:05:45.954Z,77.86
2024-01-24T02:05:58.379Z,77.91
2024-01-24T02:06:10.467Z,77.89
2024-01-24T02:06:23.951Z,77.58
2024-01-24T02:06:36.168Z,77.80
2024-01-24T02:06:48.247Z,77.83
2024-01-24T02:07:01.588Z,77.74
2024-01-24T02:07:13.755Z,77.44
2024-01-24T02:07:25.852Z,77.00
2024-01-24T02:07:38.040Z,77.07
2024-01-24T02:07:50.286Z,76.63
2024-01-24T02:08:02.491Z,76.81
2024-01-24T02:08:14.517Z,77.10
2024-01-24T02:08:26.528Z,77.06
2024-01-24T02:08:40.824Z,77.19
2024-01-24T02:08:52.898Z,77.37
2024-01-24T02:09:09.770Z,77.29
2024-01-24T02:09:21.984Z,77.32
2024-01-24T02:09:35.284Z,77.31
2024-01-24T02:09:47.347Z,77.00
2024-01-24T02:09:59.412Z,77.41
2024-01-24T02:10:12.869Z,77.53
2024-01-24T02:10:24.983Z,77.79
2024-01-24T02:10:37.019Z,77.50
2024-01-24T02:10:49.198Z,77.88
2024-01-24T02:11:01.284Z,77.96
2024-01-24T02:11:13.404Z,78.31
2024-01-24T02:11:25.470Z,78.43
2024-01-24T02:11:37.521Z,77.98
2024-01-24T02:11:49.614Z,77.99
2024-01-24T02:12:01.582Z,77.83
2024-01-24T02:12:13.848Z,77.77
2024-01-24T02:12:25.854Z,77.66
2024-01-24T02:12:37.903Z,77.15
2024-01-24T02:12:50.383Z,77.20
2024-01-24T02:13:02.657Z,77.43
2024-01-24T02:13:14.685Z,77.28
2024-01-24T02:13:33.087Z,77.53
2024-01-24T02:13:45.267Z,77.20
2024-01-24T02:14:00.434Z,77.73
2024-01-24T02:14:13.493Z,77.85
2024-01-24T02:14:25.459Z,77.96
2024-01-24T02:14:37.405Z,78.02
2024-01-24T02:14:49.440Z,77.97
2024-01-24T02:15:02.880Z,77.67
2024-01-24T02:15:14.939Z,77.72
2024-01-24T02:15:28.008Z,77.77
2024-01-24T02:15:40.029Z,77.69
2024-01-24T02:15:52.082Z,77.81
2024-01-24T02:16:07.479Z,77.57
2024-01-24T02:16:21.357Z,77.29
2024-01-24T02:16:33.587Z,77.36
2024-01-24T02:16:45.836Z,77.49
2024-01-24T02:16:57.803Z,77.47
2024-01-24T02:17:09.739Z,77.84
2024-01-24T02:17:21.741Z,77.89
2024-01-24T02:17:33.709Z,77.62
2024-01-24T02:17:45.703Z,77.77
2024-01-24T02:17:57.756Z,78.00
2024-01-24T02:18:09.838Z,78.08
2024-01-24T02:18:22.006Z,77.82
2024-01-24T02:18:34.099Z,78.03
2024-01-24T02:18:46.183Z,78.09
2024-01-24T02:18:58.498Z,78.06
2024-01-24T02:19:12.008Z,77.50
2024-01-24T02:19:24.239Z,77.11
2024-01-24T02:19:36.313Z,77.37
2024-01-24T02:19:48.368Z,77.35
2024-01-24T02:20:01.052Z,77.39
2024-01-24T02:20:14.412Z,77.40
2024-01-24T02:20:29.676Z,77.38
2024-01-24T02:20:42.895Z,77.74
2024-01-24T02:20:55.514Z,77.58
2024-01-24T02:21:07.661Z,77.37
2024-01-24T02:21:19.939Z,77.32
2024-01-24T02:21:32.377Z,77.39
2024-01-24T02:21:44.484Z,77.63
2024-01-24T02:21:56.518Z,77.31
2024-01-24T02:22:08.548Z,77.06
2024-01-24T02:22:20.571Z,77.09
2024-01-24T02:22:32.974Z,76.90
2024-01-24T02:22:45.088Z,76.83
2024-01-24T02:22:57.117Z,77.53
2024-01-24T02:23:13.264Z,77.34
2024-01-24T02:23:27.528Z,77.72
2024-01-24T02:23:41.157Z,77.52
2024-01-24T02:23:54.630Z,77.45
2024-01-24T02:24:11.387Z,77.04
2024-01-24T02:24:23.577Z,76.85
2024-01-24T02:24:35.646Z,76.86
2024-01-24T02:24:47.883Z,77.20
2024-01-24T02:24:59.889Z,77.30
2024-01-24T02:25:11.950Z,77.28
2024-01-24T02:25:23.927Z,77.33
2024-01-24T02:25:35.938Z,77.53
2024-01-24T02:25:50.276Z,77.55
2024-01-24T02:26:02.254Z,77.82
2024-01-24T02:26:14.486Z,77.75
2024-01-24T02:26:26.683Z,77.06
2024-01-24T02:26:39.728Z,76.92
2024-01-24T02:26:51.792Z,76.88
2024-01-24T02:27:04.890Z,76.94
2024-01-24T02:27:16.963Z,76.85
2024-01-24T02:27:29.282Z,76.72
2024-01-24T02:27:41.389Z,76.79
2024-01-24T02:27:53.609Z,76.82
2024-01-24T02:28:06.048Z,76.98
2024-01-24T02:28:18.092Z,76.92
2024-01-24T02:28:30.094Z,76.93
2024-01-24T02:28:42.158Z,76.76
2024-01-24T02:28:54.384Z,76.60
2024-01-24T02:29:06.617Z,76.80
2024-01-24T02:29:18.620Z,76.73
2024-01-24T02:29:30.585Z,76.94
2024-01-24T02:29:42.558Z,77.02
2024-01-24T02:29:58.373Z,76.68
2024-01-24T02:30:10.638Z,76.64
2024-01-24T02:30:22.705Z,77.03
2024-01-24T02:30:35.040Z,76.62
2024-01-24T02:30:47.319Z,77.01
2024-01-24T02:30:59.312Z,77.28
2024-01-24T02:31:11.310Z,77.23
2024-01-24T02:31:23.295Z,77.08
2024-01-24T02:31:35.761Z,77.22
2024-01-24T02:31:47.740Z,77.25
2024-01-24T02:31:59.732Z,77.14
2024-01-24T02:32:11.816Z,77.27
2024-01-24T02:32:23.912Z,77.01
2024-01-24T02:32:36.090Z,77.19
2024-01-24T02:32:48.119Z,77.12
2024-01-24T02:33:01.114Z,77.30
2024-01-24T02:33:14.133Z,77.15
2024-01-24T02:33:26.203Z,77.24
2024-01-24T02:33:38.809Z,77.21
2024-01-24T02:33:50.888Z,77.07
2024-01-24T02:34:03.067Z,77.05
2024-01-24T02:34:15.133Z,76.84
2024-01-24T02:34:27.229Z,77.23
2024-01-24T02:34:39.486Z,77.01
2024-01-24T02:34:51.651Z,76.87
2024-01-24T02:35:05.272Z,77.10
2024-01-24T02:35:17.318Z,77.26
2024-01-24T02:35:29.746Z,76.85
2024-01-24T02:35:41.799Z,76.57
2024-01-24T02:35:53.812Z,76.68
2024-01-24T02:36:06.019Z,76.40
2024-01-24T02:36:18.025Z,76.56
2024-01-24T02:36:30.184Z,76.51
2024-01-24T02:36:42.350Z,76.80
2024-01-24T02:36:54.449Z,76.25
2024-01-24T02:37:06.704Z,76.55
2024-01-24T02:37:20.981Z,76.56
2024-01-24T02:37:32.932Z,76.83
2024-01-24T02:37:44.917Z,76.58
2024-01-24T02:37:56.896Z,76.68
2024-01-24T02:38:08.913Z,76.55
2024-01-24T02:38:20.882Z,76.34
2024-01-24T02:38:32.886Z,76.43
2024-01-24T02:38:44.935Z,76.23
2024-01-24T02:38:58.572Z,76.61
2024-01-24T02:39:10.952Z,76.76
2024-01-24T02:39:23.086Z,76.49
2024-01-24T02:39:35.145Z,76.50
2024-01-24T02:39:48.160Z,76.45
2024-01-24T02:40:00.216Z,76.53
2024-01-24T02:40:12.273Z,76.48
2024-01-24T02:40:24.255Z,76.64
2024-01-24T02:40:36.322Z,76.10
2024-01-24T02:40:48.259Z,76.90